Time;durP1;ratioP1;P1;durP2;ratioP2;P2;SDS_P1;SDS_P2;PMS_P1;PMS_P2;Temp;Humidity;BMP_temperature;BMP_pressure;BME280_temperature;BME280_humidity;BME280_pressure;Samples;Min_cycle;Max_cycle;Signal;HPM_P1;HPM_P2
2021/11/30 00:01:39;;;;;;;7.80;2.53;;;;;;;;;;5004038;28;20194;-70
2021/11/30 00:04:04;;;;;;;10.93;2.67;;;;;;;;;;5001229;28;20222;-71
2021/11/30 00:06:32;;;;;;;10.23;2.90;;;;;;;;;;5007954;28;20199;-71
2021/11/30 00:09:09;;;;;;;11.67;2.70;;;;;;;;;;5001502;28;20859;-70
2021/11/30 00:11:34;;;;;;;14.30;3.37;;;;;;;;;;5003331;28;20621;-71
2021/11/30 00:14:00;;;;;;;7.40;2.80;;;;;;;;;;5001171;28;20233;-71
2021/11/30 00:16:25;;;;;;;8.63;2.47;;;;;;;;;;5006677;28;20211;-71
2021/11/30 00:18:50;;;;;;;7.87;3.23;;;;;;;;;;4999919;28;20190;-72
2021/11/30 00:21:16;;;;;;;4.60;2.60;;;;;;;;;;5007824;28;20190;-71
2021/11/30 00:23:41;;;;;;;7.67;2.70;;;;;;;;;;5019855;28;20269;-71
2021/11/30 00:26:06;;;;;;;7.23;2.60;;;;;;;;;;4997715;28;20204;-71
2021/11/30 00:28:32;;;;;;;4.50;2.10;;;;;;;;;;5010248;28;20274;-71
2021/11/30 00:30:58;;;;;;;10.37;2.27;;;;;;;;;;4996751;28;20561;-71
2021/11/30 00:33:23;;;;;;;7.60;2.17;;;;;;;;;;5003586;28;20191;-71
2021/11/30 00:35:49;;;;;;;8.37;2.60;;;;;;;;;;4997451;28;20191;-71
2021/11/30 00:38:16;;;;;;;6.13;1.87;;;;;;;;;;4998063;28;20199;-71
2021/11/30 00:40:44;;;;;;;8.83;2.30;;;;;;;;;;4999654;28;20218;-71
2021/11/30 00:43:17;;;;;;;8.53;2.20;;;;;;;;;;5002116;28;20182;-71
2021/11/30 00:45:51;;;;;;;2.83;1.47;;;;;;;;;;4994422;28;20273;-72
2021/11/30 00:48:21;;;;;;;6.23;2.00;;;;;;;;;;5009064;28;20186;-72
2021/11/30 00:50:47;;;;;;;8.57;1.60;;;;;;;;;;4996415;28;20187;-72
2021/11/30 00:53:13;;;;;;;6.73;2.07;;;;;;;;;;5007524;28;20218;-72
2021/11/30 00:55:38;;;;;;;3.97;1.67;;;;;;;;;;4995793;28;20230;-72
2021/11/30 00:58:05;;;;;;;14.33;2.17;;;;;;;;;;5009189;28;20657;-72
2021/11/30 01:00:34;;;;;;;4.90;1.20;;;;;;;;;;5003388;28;20178;-72
2021/11/30 01:03:00;;;;;;;6.97;1.60;;;;;;;;;;4999421;28;20658;-72
2021/11/30 01:05:25;;;;;;;8.43;1.67;;;;;;;;;;5008069;28;20197;-72
2021/11/30 01:07:51;;;;;;;7.67;1.67;;;;;;;;;;4997481;28;20225;-71
2021/11/30 01:10:16;;;;;;;10.03;1.70;;;;;;;;;;5008583;28;20254;-71
2021/11/30 01:12:42;;;;;;;8.50;1.70;;;;;;;;;;4999079;28;20195;-71
2021/11/30 01:15:11;;;;;;;4.27;1.90;;;;;;;;;;5011404;28;20182;-71
2021/11/30 01:17:36;;;;;;;3.73;1.70;;;;;;;;;;4998101;28;20265;-71
2021/11/30 01:20:04;;;;;;;8.47;1.80;;;;;;;;;;5009208;28;20645;-71
2021/11/30 01:22:30;;;;;;;6.37;1.83;;;;;;;;;;4999016;28;20600;-71
2021/11/30 01:24:55;;;;;;;7.67;2.17;;;;;;;;;;5012726;28;20222;-70
2021/11/30 01:27:20;;;;;;;10.07;2.00;;;;;;;;;;4997079;28;20187;-71
2021/11/30 01:29:46;;;;;;;8.57;2.20;;;;;;;;;;5010910;28;20276;-70
2021/11/30 01:32:11;;;;;;;7.90;1.93;;;;;;;;;;5004232;28;20289;-70
2021/11/30 01:34:36;;;;;;;5.73;2.03;;;;;;;;;;5001597;28;20209;-71
2021/11/30 01:37:02;;;;;;;8.40;2.10;;;;;;;;;;5005033;28;20215;-72
2021/11/30 01:39:28;;;;;;;9.57;2.53;;;;;;;;;;4999134;28;20226;-70
2021/11/30 01:41:54;;;;;;;9.77;2.63;;;;;;;;;;5003462;28;20171;-71
2021/11/30 01:44:37;;;;;;;6.77;2.50;;;;;;;;;;4996730;28;20392;-70
2021/11/30 01:49:38;;;;;;;11.57;3.13;;;;;;;;;;5008293;28;20194;-71
2021/11/30 01:52:09;;;;;;;9.87;4.37;;;;;;;;;;5006113;28;20178;-71
2021/11/30 01:54:39;;;;;;;12.10;3.70;;;;;;;;;;4999004;28;20185;-71
2021/11/30 01:57:06;;;;;;;11.43;4.00;;;;;;;;;;5006564;28;20167;-71
2021/11/30 01:59:32;;;;;;;10.00;5.27;;;;;;;;;;4992496;28;20194;-71
2021/11/30 02:01:57;;;;;;;11.30;5.43;;;;;;;;;;5001989;28;20183;-71
2021/11/30 02:04:22;;;;;;;10.67;5.23;;;;;;;;;;4994549;28;20245;-70
2021/11/30 02:06:48;;;;;;;14.47;6.33;;;;;;;;;;5012116;28;20204;-70
2021/11/30 02:09:13;;;;;;;13.50;6.13;;;;;;;;;;5006460;28;20187;-70
2021/11/30 02:11:39;;;;;;;15.10;6.10;;;;;;;;;;4994332;28;20242;-70
2021/11/30 02:14:04;;;;;;;9.77;5.60;;;;;;;;;;5003669;28;20179;-71
2021/11/30 02:16:30;;;;;;;11.33;6.60;;;;;;;;;;4999482;28;20257;-71
2021/11/30 02:19:00;;;;;;;13.30;6.17;;;;;;;;;;5003611;28;20305;-71
2021/11/30 02:21:26;;;;;;;15.67;6.40;;;;;;;;;;5003303;28;20658;-72
2021/11/30 02:24:00;;;;;;;13.03;6.23;;;;;;;;;;5002730;28;20748;-71
2021/11/30 02:26:28;;;;;;;14.30;6.57;;;;;;;;;;5001723;28;20239;-71
2021/11/30 02:28:57;;;;;;;15.30;6.33;;;;;;;;;;5018172;28;20615;-72
2021/11/30 02:31:30;;;;;;;16.70;6.37;;;;;;;;;;5007146;28;20186;-72
2021/11/30 02:33:56;;;;;;;14.17;6.23;;;;;;;;;;5002156;28;20552;-72
2021/11/30 02:36:47;;;;;;;13.73;6.13;;;;;;;;;;4990950;28;20598;-72
2021/11/30 02:39:16;;;;;;;11.10;6.20;;;;;;;;;;5007967;28;20182;-72
2021/11/30 02:41:43;;;;;;;18.30;6.87;;;;;;;;;;4998837;28;20230;-72
2021/11/30 02:44:11;;;;;;;12.60;6.33;;;;;;;;;;5007025;28;20210;-72
2021/11/30 02:46:40;;;;;;;12.13;6.87;;;;;;;;;;5000365;28;20198;-73
2021/11/30 02:49:08;;;;;;;11.83;5.77;;;;;;;;;;5002605;28;20179;-72
2021/11/30 02:51:35;;;;;;;12.57;6.77;;;;;;;;;;4997912;28;20194;-75
2021/11/30 02:54:05;;;;;;;9.73;6.23;;;;;;;;;;4998565;28;20268;-73
2021/11/30 02:56:30;;;;;;;11.97;6.17;;;;;;;;;;5008115;28;20210;-72
2021/11/30 02:58:56;;;;;;;14.63;7.60;;;;;;;;;;5002596;28;20603;-73
2021/11/30 03:01:22;;;;;;;15.47;8.20;;;;;;;;;;5010321;28;20194;-73
2021/11/30 03:03:48;;;;;;;17.80;8.70;;;;;;;;;;4998849;28;20229;-72
2021/11/30 03:06:14;;;;;;;15.23;9.43;;;;;;;;;;5006010;28;20188;-72
2021/11/30 03:08:41;;;;;;;19.13;9.37;;;;;;;;;;5005539;28;20594;-72
2021/11/30 03:11:08;;;;;;;13.80;10.00;;;;;;;;;;5008605;28;20940;-72
2021/11/30 03:13:34;;;;;;;16.17;9.80;;;;;;;;;;4999665;28;20210;-72
2021/11/30 03:15:59;;;;;;;19.17;10.37;;;;;;;;;;5009143;28;20653;-71
2021/11/30 03:18:25;;;;;;;23.53;12.43;;;;;;;;;;5002673;28;20190;-71
2021/11/30 03:20:50;;;;;;;27.17;13.23;;;;;;;;;;5007326;28;20236;-71
2021/11/30 03:23:16;;;;;;;26.80;13.60;;;;;;;;;;5004089;28;20198;-71
2021/11/30 03:25:42;;;;;;;27.87;14.10;;;;;;;;;;5010893;28;20260;-71
2021/11/30 03:28:09;;;;;;;26.60;15.70;;;;;;;;;;5006121;28;20190;-70
2021/11/30 03:30:37;;;;;;;29.37;15.77;;;;;;;;;;5000394;28;20556;-71
2021/11/30 03:35:46;;;;;;;31.23;15.93;;;;;;;;;;5003843;28;20209;-71
2021/11/30 03:38:12;;;;;;;36.43;17.50;;;;;;;;;;5009610;28;20195;-71
2021/11/30 03:40:37;;;;;;;35.67;17.30;;;;;;;;;;5000720;28;20190;-70
2021/11/30 03:43:03;;;;;;;35.33;18.27;;;;;;;;;;5008374;28;20599;-71
2021/11/30 03:45:28;;;;;;;33.43;17.80;;;;;;;;;;5008155;28;20574;-70
2021/11/30 03:47:53;;;;;;;31.63;17.43;;;;;;;;;;5008087;28;20191;-70
2021/11/30 03:50:19;;;;;;;34.70;17.97;;;;;;;;;;5000475;28;20198;-70
2021/11/30 03:52:44;;;;;;;31.27;18.43;;;;;;;;;;5007451;28;20199;-70
2021/11/30 03:55:10;;;;;;;36.93;20.27;;;;;;;;;;5003546;28;20210;-70
2021/11/30 03:57:35;;;;;;;32.90;19.30;;;;;;;;;;5009076;28;20195;-70
2021/11/30 04:00:05;;;;;;;32.90;20.30;;;;;;;;;;5004990;28;20224;-71
2021/11/30 04:02:31;;;;;;;37.20;19.43;;;;;;;;;;5007906;28;20175;-71
2021/11/30 04:04:56;;;;;;;34.37;19.57;;;;;;;;;;5007283;28;20309;-71
2021/11/30 04:07:22;;;;;;;29.00;19.27;;;;;;;;;;5000405;28;20194;-71
2021/11/30 04:09:47;;;;;;;36.77;19.80;;;;;;;;;;5011231;28;20639;-73
2021/11/30 04:12:12;;;;;;;29.73;19.57;;;;;;;;;;5001780;28;20236;-72
2021/11/30 04:14:38;;;;;;;26.97;19.00;;;;;;;;;;5017166;28;20263;-73
2021/11/30 04:17:05;;;;;;;28.73;18.73;;;;;;;;;;5001105;28;20296;-72
2021/11/30 04:19:31;;;;;;;30.13;18.70;;;;;;;;;;5014796;28;20263;-72
2021/11/30 04:21:56;;;;;;;30.03;19.50;;;;;;;;;;4999239;28;20194;-72
2021/11/30 04:24:21;;;;;;;29.30;19.53;;;;;;;;;;5002312;28;20222;-73
2021/11/30 04:26:47;;;;;;;25.23;18.93;;;;;;;;;;4997332;28;20194;-73
2021/11/30 04:29:12;;;;;;;29.13;18.33;;;;;;;;;;5006103;28;20645;-72
2021/11/30 04:31:38;;;;;;;25.80;18.87;;;;;;;;;;4997390;28;20532;-74
2021/11/30 04:34:04;;;;;;;27.53;18.03;;;;;;;;;;5004928;28;20222;-73
2021/11/30 04:36:29;;;;;;;28.43;17.90;;;;;;;;;;5008389;28;20183;-73
2021/11/30 04:38:56;;;;;;;28.57;18.13;;;;;;;;;;5000012;28;20550;-73
2021/11/30 04:41:22;;;;;;;23.17;17.30;;;;;;;;;;5005025;28;20352;-72
2021/11/30 04:43:48;;;;;;;26.30;17.50;;;;;;;;;;4998864;28;20199;-72
2021/11/30 04:49:11;;;;;;;25.57;19.07;;;;;;;;;;5004020;28;20195;-73
2021/11/30 04:51:37;;;;;;;24.20;17.03;;;;;;;;;;5009590;28;20174;-72
2021/11/30 04:54:02;;;;;;;22.63;17.23;;;;;;;;;;4997825;28;20567;-73
2021/11/30 04:56:28;;;;;;;24.97;17.57;;;;;;;;;;5005614;28;20224;-73
2021/11/30 04:58:53;;;;;;;22.30;15.57;;;;;;;;;;4993139;28;20204;-74
2021/11/30 05:01:19;;;;;;;21.27;15.70;;;;;;;;;;5009694;28;20186;-73
2021/11/30 05:03:45;;;;;;;24.13;16.57;;;;;;;;;;4997855;28;20622;-72
2021/11/30 05:06:12;;;;;;;23.03;15.73;;;;;;;;;;5007696;28;20252;-72
2021/11/30 05:08:37;;;;;;;19.73;15.40;;;;;;;;;;4995192;28;20186;-73
2021/11/30 05:11:03;;;;;;;20.90;15.33;;;;;;;;;;5003207;28;20257;-73
2021/11/30 05:13:29;;;;;;;21.57;14.97;;;;;;;;;;5006905;28;20195;-73
2021/11/30 05:15:54;;;;;;;19.70;14.40;;;;;;;;;;4993486;28;20199;-73
2021/11/30 05:18:20;;;;;;;19.80;14.43;;;;;;;;;;5004167;28;20201;-72
2021/11/30 05:20:45;;;;;;;20.53;13.93;;;;;;;;;;5000293;28;20274;-71
2021/11/30 05:23:14;;;;;;;20.30;14.53;;;;;;;;;;5004970;28;20189;-73
2021/11/30 05:25:40;;;;;;;17.90;13.70;;;;;;;;;;4999728;28;20305;-72
2021/11/30 05:28:06;;;;;;;18.03;13.43;;;;;;;;;;5008751;28;20186;-72
2021/11/30 05:30:38;;;;;;;18.37;14.13;;;;;;;;;;5001375;28;20187;-72
2021/11/30 05:33:09;;;;;;;19.87;14.53;;;;;;;;;;5005859;28;20186;-72
2021/11/30 05:35:35;;;;;;;17.00;13.27;;;;;;;;;;4998189;28;20229;-73
2021/11/30 05:38:00;;;;;;;20.13;13.93;;;;;;;;;;5000932;28;20184;-73
2021/11/30 05:40:26;;;;;;;17.10;13.37;;;;;;;;;;4997594;28;20197;-73
2021/11/30 05:42:52;;;;;;;18.17;12.40;;;;;;;;;;4999604;28;20691;-74
2021/11/30 05:45:18;;;;;;;16.03;11.47;;;;;;;;;;5004914;28;20691;-73
2021/11/30 05:47:43;;;;;;;16.77;11.97;;;;;;;;;;5000133;28;20277;-73
2021/11/30 05:50:09;;;;;;;15.97;11.67;;;;;;;;;;5006253;28;20534;-73
2021/11/30 05:52:34;;;;;;;16.53;11.57;;;;;;;;;;4998312;28;20639;-73
2021/11/30 05:54:59;;;;;;;15.30;11.17;;;;;;;;;;5001870;28;20211;-73
2021/11/30 05:57:25;;;;;;;14.47;11.00;;;;;;;;;;4997996;28;20199;-73
2021/11/30 05:59:52;;;;;;;14.93;11.90;;;;;;;;;;5003754;28;20195;-72
2021/11/30 06:02:18;;;;;;;15.73;11.43;;;;;;;;;;4992765;28;20195;-72
2021/11/30 06:04:44;;;;;;;14.50;10.73;;;;;;;;;;5003135;28;20211;-72
2021/11/30 06:07:09;;;;;;;14.30;10.70;;;;;;;;;;4992057;28;20196;-72
2021/11/30 06:09:35;;;;;;;15.33;10.60;;;;;;;;;;5004332;28;20190;-72
2021/11/30 06:12:01;;;;;;;13.33;10.07;;;;;;;;;;4994440;28;20284;-72
2021/11/30 06:14:26;;;;;;;12.43;9.20;;;;;;;;;;5002915;28;20303;-72
2021/11/30 06:16:52;;;;;;;12.00;9.23;;;;;;;;;;5004703;28;20309;-73
2021/11/30 06:19:19;;;;;;;12.13;9.23;;;;;;;;;;4993598;28;20195;-72
2021/11/30 06:21:45;;;;;;;11.40;8.80;;;;;;;;;;5003918;28;20230;-73
2021/11/30 06:24:11;;;;;;;13.47;9.03;;;;;;;;;;4996452;28;20242;-73
2021/11/30 06:26:36;;;;;;;12.93;8.97;;;;;;;;;;5013871;28;20202;-77
2021/11/30 06:29:02;;;;;;;13.80;8.50;;;;;;;;;;4999167;28;20194;-77
2021/11/30 06:31:27;;;;;;;11.00;8.30;;;;;;;;;;5004510;28;20208;-76
2021/11/30 06:33:52;;;;;;;13.23;10.27;;;;;;;;;;4993358;28;20201;-76
2021/11/30 06:36:18;;;;;;;12.40;9.23;;;;;;;;;;5003531;28;20294;-75
2021/11/30 06:38:43;;;;;;;13.20;8.93;;;;;;;;;;4994388;28;20580;-73
2021/11/30 06:41:08;;;;;;;12.90;9.40;;;;;;;;;;5014180;28;20252;-73
2021/11/30 06:43:34;;;;;;;14.03;9.43;;;;;;;;;;4987170;28;20195;-72
2021/11/30 06:45:59;;;;;;;13.63;9.90;;;;;;;;;;5006628;28;20245;-72
2021/11/30 06:48:24;;;;;;;13.17;9.90;;;;;;;;;;5004889;28;20532;-72
2021/11/30 06:50:51;;;;;;;12.33;8.53;;;;;;;;;;4999817;28;20646;-72
2021/11/30 06:53:17;;;;;;;11.00;8.50;;;;;;;;;;5011283;28;20182;-72
2021/11/30 06:55:42;;;;;;;11.63;8.90;;;;;;;;;;5003388;28;20214;-72
2021/11/30 06:58:07;;;;;;;11.10;8.23;;;;;;;;;;5009957;28;20222;-72
2021/11/30 07:00:33;;;;;;;12.17;8.20;;;;;;;;;;5000200;28;20191;-73
2021/11/30 07:02:58;;;;;;;12.70;7.73;;;;;;;;;;5010720;28;20217;-74
2021/11/30 07:05:38;;;;;;;9.90;7.30;;;;;;;;;;4996224;28;20211;-76
2021/11/30 07:10:38;;;;;;;9.63;7.17;;;;;;;;;;4998661;28;20238;-76
2021/11/30 07:15:41;;;;;;;10.63;7.83;;;;;;;;;;4997431;28;20190;-76
2021/11/30 07:18:07;;;;;;;12.37;8.33;;;;;;;;;;5019167;28;20194;-74
2021/11/30 07:20:32;;;;;;;10.70;7.83;;;;;;;;;;5002431;28;20661;-73
2021/11/30 07:22:58;;;;;;;12.50;8.93;;;;;;;;;;5018292;28;20186;-77
2021/11/30 07:25:24;;;;;;;12.63;8.27;;;;;;;;;;5002034;28;20209;-75
2021/11/30 07:27:50;;;;;;;12.83;9.17;;;;;;;;;;5009458;28;20679;-75
2021/11/30 07:30:16;;;;;;;12.40;9.07;;;;;;;;;;5006814;28;20179;-76
2021/11/30 07:32:41;;;;;;;12.80;9.17;;;;;;;;;;5000134;28;20214;-76
2021/11/30 07:35:07;;;;;;;13.47;9.20;;;;;;;;;;5012127;28;20606;-73
2021/11/30 07:37:33;;;;;;;13.90;9.17;;;;;;;;;;4993851;28;20628;-74
2021/11/30 07:39:58;;;;;;;14.00;9.73;;;;;;;;;;5005429;28;20191;-75
2021/11/30 07:42:24;;;;;;;14.80;9.20;;;;;;;;;;4996413;28;20182;-73
2021/11/30 07:44:50;;;;;;;14.83;9.73;;;;;;;;;;5008382;28;20279;-73
2021/11/30 07:47:15;;;;;;;13.33;8.70;;;;;;;;;;4999252;28;20186;-73
2021/11/30 07:49:41;;;;;;;11.13;8.07;;;;;;;;;;5015580;28;20202;-73
2021/11/30 07:52:07;;;;;;;16.70;8.93;;;;;;;;;;5004036;28;20190;-72
2021/11/30 07:54:32;;;;;;;14.93;7.40;;;;;;;;;;5001878;28;20636;-72
2021/11/30 07:56:58;;;;;;;12.37;6.93;;;;;;;;;;4997839;28;20558;-72
2021/11/30 07:59:23;;;;;;;13.50;6.63;;;;;;;;;;5000722;28;20267;-72
2021/11/30 08:01:48;;;;;;;12.27;5.23;;;;;;;;;;5006682;28;20187;-72
2021/11/30 08:04:14;;;;;;;12.43;4.77;;;;;;;;;;4999601;28;20409;-72
2021/11/30 08:06:39;;;;;;;7.83;3.87;;;;;;;;;;5008015;28;20224;-72
2021/11/30 08:09:05;;;;;;;9.90;3.37;;;;;;;;;;4996048;28;20243;-72
2021/11/30 08:11:30;;;;;;;7.77;3.77;;;;;;;;;;5006491;28;20643;-72
2021/11/30 08:13:56;;;;;;;9.80;3.83;;;;;;;;;;5000378;28;20274;-72
2021/11/30 08:16:21;;;;;;;12.83;4.50;;;;;;;;;;5009705;28;20669;-72
2021/11/30 08:18:46;;;;;;;11.27;4.10;;;;;;;;;;5005550;28;20548;-72
2021/11/30 08:21:12;;;;;;;9.87;3.63;;;;;;;;;;5008549;28;20220;-72
2021/11/30 08:23:37;;;;;;;8.17;3.60;;;;;;;;;;5006832;28;20191;-71
2021/11/30 08:26:03;;;;;;;11.13;3.83;;;;;;;;;;5009861;28;20285;-70
2021/11/30 08:28:28;;;;;;;12.47;3.47;;;;;;;;;;5007530;28;20179;-71
2021/11/30 08:30:54;;;;;;;11.87;3.40;;;;;;;;;;4994544;28;20197;-70
2021/11/30 08:33:19;;;;;;;9.40;2.97;;;;;;;;;;5013642;28;20452;-71
2021/11/30 08:35:46;;;;;;;7.30;2.93;;;;;;;;;;4997246;28;20555;-71
2021/11/30 08:38:12;;;;;;;10.77;3.30;;;;;;;;;;5006551;28;20561;-71
2021/11/30 08:40:37;;;;;;;7.80;3.43;;;;;;;;;;4997020;28;20273;-70
2021/11/30 08:43:03;;;;;;;10.15;3.58;;;;;;;;;;5007044;28;20547;-70
2021/11/30 08:45:29;;;;;;;7.13;2.53;;;;;;;;;;4997472;28;20541;-70
2021/11/30 08:47:55;;;;;;;11.63;3.03;;;;;;;;;;5006531;28;20194;-71
2021/11/30 08:50:20;;;;;;;13.45;2.97;;;;;;;;;;4997438;28;20191;-71
2021/11/30 08:52:47;;;;;;;11.37;2.83;;;;;;;;;;5004291;28;20611;-71
2021/11/30 08:55:13;;;;;;;17.30;3.23;;;;;;;;;;4995154;28;20265;-71
2021/11/30 08:57:39;;;;;;;12.93;2.80;;;;;;;;;;5009383;28;20229;-71
2021/11/30 09:00:12;;;;;;;11.53;2.23;;;;;;;;;;5002839;28;20244;-69
2021/11/30 09:02:38;;;;;;;11.55;1.95;;;;;;;;;;4998374;28;20190;-70
2021/11/30 09:05:06;;;;;;;7.57;1.70;;;;;;;;;;5010629;28;20200;-70
2021/11/30 09:07:31;;;;;;;10.27;1.27;;;;;;;;;;5000390;28;20360;-70
2021/11/30 09:09:57;;;;;;;15.70;1.83;;;;;;;;;;5011279;28;20499;-70
2021/11/30 09:12:23;;;;;;;11.70;1.23;;;;;;;;;;4997875;28;20230;-70
2021/11/30 09:14:48;;;;;;;6.67;1.30;;;;;;;;;;5018689;28;20182;-70
2021/11/30 09:17:16;;;;;;;15.17;2.33;;;;;;;;;;5000957;28;20206;-69
2021/11/30 09:19:41;;;;;;;8.00;1.30;;;;;;;;;;5012474;28;20178;-69
2021/11/30 09:22:07;;;;;;;8.67;1.30;;;;;;;;;;4998714;28;20193;-69
2021/11/30 09:24:32;;;;;;;8.30;1.40;;;;;;;;;;5012140;28;20221;-69
2021/11/30 09:26:58;;;;;;;17.87;1.90;;;;;;;;;;4996559;28;20273;-69
2021/11/30 09:29:23;;;;;;;12.43;1.37;;;;;;;;;;5012206;28;20233;-69
2021/11/30 09:31:49;;;;;;;9.13;1.30;;;;;;;;;;5009867;28;20247;-69
2021/11/30 09:34:15;;;;;;;9.67;1.60;;;;;;;;;;4998844;28;20282;-69
2021/11/30 09:36:42;;;;;;;8.47;1.33;;;;;;;;;;5007211;28;20178;-69
2021/11/30 09:39:08;;;;;;;11.87;2.00;;;;;;;;;;4999610;28;20293;-69
2021/11/30 09:41:35;;;;;;;10.07;1.70;;;;;;;;;;5010019;28;20210;-69
2021/11/30 09:44:00;;;;;;;11.03;1.47;;;;;;;;;;5003708;28;20562;-70
2021/11/30 09:46:26;;;;;;;14.93;1.80;;;;;;;;;;5003230;28;20191;-69
2021/11/30 09:48:51;;;;;;;13.23;1.10;;;;;;;;;;5004272;28;21756;-69
2021/11/30 09:51:17;;;;;;;15.00;1.80;;;;;;;;;;5009310;28;20512;-69
2021/11/30 09:53:43;;;;;;;9.67;1.20;;;;;;;;;;5009676;28;20201;-69
2021/11/30 09:56:09;;;;;;;17.73;1.30;;;;;;;;;;5006127;28;20225;-69
2021/11/30 09:58:34;;;;;;;11.83;1.80;;;;;;;;;;5000028;28;20205;-69
2021/11/30 10:01:03;;;;;;;10.73;1.60;;;;;;;;;;5007763;28;20630;-69
2021/11/30 10:03:29;;;;;;;19.33;1.77;;;;;;;;;;5007362;28;20190;-69
2021/11/30 10:05:56;;;;;;;12.63;1.40;;;;;;;;;;5004743;28;20210;-69
2021/11/30 10:08:31;;;;;;;13.17;2.27;;;;;;;;;;5011145;28;20553;-69
2021/11/30 10:10:58;;;;;;;9.67;1.90;;;;;;;;;;5009173;28;20598;-69
2021/11/30 10:13:25;;;;;;;14.87;1.50;;;;;;;;;;5010104;28;20206;-69
2021/11/30 10:15:58;;;;;;;15.07;1.47;;;;;;;;;;5003660;28;20190;-69
2021/11/30 10:18:26;;;;;;;12.10;1.30;;;;;;;;;;5006755;28;20333;-70
2021/11/30 10:21:13;;;;;;;12.00;1.43;;;;;;;;;;5008824;28;20193;-69
2021/11/30 10:23:47;;;;;;;21.27;1.47;;;;;;;;;;5009017;28;20186;-70
2021/11/30 10:26:13;;;;;;;12.87;1.57;;;;;;;;;;4999153;28;20305;-70
2021/11/30 10:28:38;;;;;;;14.63;1.70;;;;;;;;;;5009213;28;20690;-70
2021/11/30 10:31:08;;;;;;;8.63;1.57;;;;;;;;;;5002739;28;20206;-70
2021/11/30 10:33:33;;;;;;;15.17;1.17;;;;;;;;;;5008387;28;20201;-70
2021/11/30 10:36:00;;;;;;;7.17;1.20;;;;;;;;;;5004295;28;20210;-70
2021/11/30 10:38:39;;;;;;;8.83;1.47;;;;;;;;;;5013373;28;20193;-71
2021/11/30 10:41:14;;;;;;;10.83;1.30;;;;;;;;;;5003648;28;20190;-71
2021/11/30 10:44:03;;;;;;;16.50;1.23;;;;;;;;;;5009507;28;20553;-71
2021/11/30 10:46:35;;;;;;;12.50;1.73;;;;;;;;;;4999982;28;20202;-71
2021/11/30 10:49:01;;;;;;;14.53;1.23;;;;;;;;;;5011875;28;20194;-70
2021/11/30 10:51:28;;;;;;;11.67;1.70;;;;;;;;;;4999773;28;20201;-70
2021/11/30 10:53:58;;;;;;;6.60;1.23;;;;;;;;;;5012852;28;20205;-70
2021/11/30 10:56:24;;;;;;;14.67;1.20;;;;;;;;;;4998074;28;20216;-70
2021/11/30 10:58:53;;;;;;;13.37;1.40;;;;;;;;;;5011882;28;20270;-71
2021/11/30 11:01:21;;;;;;;7.90;1.63;;;;;;;;;;5004559;28;20722;-70
2021/11/30 11:04:07;;;;;;;8.80;1.80;;;;;;;;;;5003891;28;20186;-71
2021/11/30 11:06:36;;;;;;;10.00;1.30;;;;;;;;;;5008732;28;20366;-70
2021/11/30 11:09:11;;;;;;;12.60;1.70;;;;;;;;;;4998661;28;20190;-70
2021/11/30 11:11:47;;;;;;;8.73;1.47;;;;;;;;;;5000694;28;20239;-71
2021/11/30 11:14:25;;;;;;;15.27;1.20;;;;;;;;;;4995794;28;20217;-71
2021/11/30 11:17:02;;;;;;;16.83;1.80;;;;;;;;;;5016944;28;20505;-71
2021/11/30 11:19:42;;;;;;;11.80;1.60;;;;;;;;;;5011918;28;20650;-71
2021/11/30 11:22:15;;;;;;;8.00;1.20;;;;;;;;;;4995309;28;20205;-71
2021/11/30 11:24:42;;;;;;;12.98;1.60;;;;;;;;;;5000210;28;20217;-71
2021/11/30 11:27:08;;;;;;;10.60;1.43;;;;;;;;;;5012693;28;20203;-72
2021/11/30 11:29:35;;;;;;;7.30;1.27;;;;;;;;;;4998073;28;20286;-72
2021/11/30 11:32:07;;;;;;;15.07;1.40;;;;;;;;;;5009541;28;20201;-71
2021/11/30 11:34:34;;;;;;;10.83;2.20;;;;;;;;;;5000834;28;20253;-71
2021/11/30 11:37:01;;;;;;;10.63;1.42;;;;;;;;;;5006454;28;20187;-71
2021/11/30 11:39:29;;;;;;;15.33;1.83;;;;;;;;;;4999741;28;20190;-70
2021/11/30 11:42:00;;;;;;;11.48;1.27;;;;;;;;;;5007567;28;20662;-71
2021/11/30 11:44:25;;;;;;;11.40;1.90;;;;;;;;;;5001375;28;20712;-71
2021/11/30 11:46:53;;;;;;;7.63;1.10;;;;;;;;;;5012661;28;20195;-72
2021/11/30 11:49:24;;;;;;;6.93;1.10;;;;;;;;;;4999938;28;21791;-71
2021/11/30 11:51:52;;;;;;;9.80;1.20;;;;;;;;;;5010200;28;20741;-71
2021/11/30 11:54:31;;;;;;;7.23;0.90;;;;;;;;;;4996354;28;22236;-71
2021/11/30 11:57:10;;;;;;;11.73;1.30;;;;;;;;;;5009782;28;20186;-71
2021/11/30 11:59:44;;;;;;;7.53;1.07;;;;;;;;;;5001227;28;20367;-72
2021/11/30 12:02:23;;;;;;;5.40;1.07;;;;;;;;;;5010684;28;20658;-72
2021/11/30 12:04:54;;;;;;;7.50;0.80;;;;;;;;;;5008993;28;20277;-72
2021/11/30 12:07:22;;;;;;;7.50;0.70;;;;;;;;;;5012117;28;20185;-72
2021/11/30 12:09:48;;;;;;;8.83;1.30;;;;;;;;;;5014198;28;20583;-72
2021/11/30 12:12:22;;;;;;;6.73;1.53;;;;;;;;;;4999033;28;20233;-72
2021/11/30 12:14:58;;;;;;;6.47;0.80;;;;;;;;;;5008285;28;20186;-72
2021/11/30 12:17:23;;;;;;;9.07;1.20;;;;;;;;;;5001102;28;20198;-72
2021/11/30 12:20:01;;;;;;;5.37;0.90;;;;;;;;;;5013425;28;20202;-70
2021/11/30 12:22:46;;;;;;;8.50;1.33;;;;;;;;;;4997686;28;20765;-71
2021/11/30 12:25:26;;;;;;;5.07;0.60;;;;;;;;;;5003554;28;20547;-72
2021/11/30 12:28:30;;;;;;;9.00;1.57;;;;;;;;;;5010734;28;20215;-72
2021/11/30 12:30:57;;;;;;;3.67;0.70;;;;;;;;;;4306785;28;10000750;-72
2021/11/30 12:33:33;;;;;;;5.00;0.63;;;;;;;;;;5001097;28;20703;-71
2021/11/30 12:36:00;;;;;;;6.37;1.53;;;;;;;;;;5011143;28;20173;-70
2021/11/30 12:38:32;;;;;;;7.53;0.90;;;;;;;;;;4994281;28;20531;-71
2021/11/30 12:41:00;;;;;;;5.97;1.20;;;;;;;;;;4998836;28;20205;-71
2021/11/30 12:43:31;;;;;;;6.80;1.03;;;;;;;;;;4991761;28;20245;-71
2021/11/30 12:46:02;;;;;;;6.47;1.13;;;;;;;;;;5006658;28;20266;-71
2021/11/30 12:48:38;;;;;;;6.17;1.20;;;;;;;;;;5000306;28;20190;-72
2021/11/30 12:51:23;;;;;;;12.30;1.37;;;;;;;;;;5005888;28;20638;-71
2021/11/30 12:53:49;;;;;;;10.60;1.27;;;;;;;;;;4994371;28;20264;-72
2021/11/30 12:56:54;;;;;;;9.70;0.83;;;;;;;;;;5005179;28;20285;-72
2021/11/30 12:59:37;;;;;;;7.53;1.13;;;;;;;;;;4997691;28;20186;-72
2021/11/30 13:02:21;;;;;;;8.17;1.07;;;;;;;;;;5007751;28;20194;-73
2021/11/30 13:04:49;;;;;;;7.67;0.93;;;;;;;;;;5002897;28;20292;-73
2021/11/30 13:07:17;;;;;;;14.73;2.33;;;;;;;;;;5005697;28;20248;-72
2021/11/30 13:09:47;;;;;;;12.57;1.10;;;;;;;;;;4999890;28;20183;-73
2021/11/30 13:12:17;;;;;;;8.13;0.90;;;;;;;;;;5001388;28;20282;-73
2021/11/30 13:14:44;;;;;;;10.30;1.00;;;;;;;;;;4998901;28;20245;-73
2021/11/30 13:17:09;;;;;;;6.03;0.70;;;;;;;;;;5003930;28;20197;-72
2021/11/30 13:19:39;;;;;;;7.10;0.80;;;;;;;;;;4996991;28;20183;-72
2021/11/30 13:22:06;;;;;;;10.13;1.00;;;;;;;;;;5006341;28;20191;-72
2021/11/30 13:24:38;;;;;;;4.13;0.73;;;;;;;;;;5000360;28;20215;-72
2021/11/30 13:27:15;;;;;;;4.87;0.60;;;;;;;;;;5002445;28;20242;-71
2021/11/30 13:30:02;;;;;;;4.00;0.70;;;;;;;;;;4994999;28;20789;-72
2021/11/30 13:32:33;;;;;;;9.57;0.90;;;;;;;;;;5002244;28;20268;-72
2021/11/30 13:35:15;;;;;;;8.43;0.70;;;;;;;;;;5000316;28;20190;-71
2021/11/30 13:38:04;;;;;;;3.70;1.17;;;;;;;;;;5008286;28;20232;-71
2021/11/30 13:40:38;;;;;;;5.87;0.80;;;;;;;;;;4993528;28;20191;-71
2021/11/30 13:43:13;;;;;;;4.93;0.80;;;;;;;;;;5004873;28;20175;-71
2021/11/30 13:46:01;;;;;;;6.03;0.97;;;;;;;;;;4995328;28;20213;-71
2021/11/30 13:48:29;;;;;;;9.57;1.00;;;;;;;;;;5001732;28;20194;-70
2021/11/30 13:50:57;;;;;;;8.50;1.07;;;;;;;;;;4997472;28;20790;-72
2021/11/30 13:53:26;;;;;;;7.13;1.00;;;;;;;;;;5002604;28;20533;-71
2021/11/30 13:55:55;;;;;;;7.50;0.93;;;;;;;;;;4995731;28;20230;-71
2021/11/30 13:58:33;;;;;;;7.27;1.17;;;;;;;;;;5005795;28;20557;-71
2021/11/30 14:03:53;;;;;;;7.63;1.03;;;;;;;;;;5002744;28;20201;-72
2021/11/30 14:06:39;;;;;;;8.73;1.30;;;;;;;;;;5003321;28;20214;-72
2021/11/30 14:09:13;;;;;;;6.47;1.30;;;;;;;;;;5003416;28;20198;-72
2021/11/30 14:11:46;;;;;;;8.63;1.23;;;;;;;;;;4994619;28;20694;-72
2021/11/30 14:14:13;;;;;;;7.97;1.30;;;;;;;;;;5002465;28;20248;-72
2021/11/30 14:16:53;;;;;;;9.77;1.87;;;;;;;;;;4996059;28;20555;-71
2021/11/30 14:19:20;;;;;;;13.03;2.03;;;;;;;;;;4993849;28;20381;-72
2021/11/30 14:22:00;;;;;;;11.00;1.33;;;;;;;;;;4997236;28;20193;-72
2021/11/30 14:24:26;;;;;;;8.17;1.50;;;;;;;;;;4998364;28;20210;-71
2021/11/30 14:26:52;;;;;;;8.70;1.60;;;;;;;;;;4991031;28;20214;-71
2021/11/30 14:29:22;;;;;;;15.17;1.70;;;;;;;;;;5004908;28;20221;-71
2021/11/30 14:32:03;;;;;;;14.87;2.27;;;;;;;;;;5004931;28;20193;-71
2021/11/30 14:34:34;;;;;;;9.50;2.10;;;;;;;;;;4995613;28;20190;-73
2021/11/30 14:37:24;;;;;;;7.97;1.50;;;;;;;;;;5007010;28;20187;-73
2021/11/30 14:40:05;;;;;;;11.67;1.57;;;;;;;;;;5003362;28;20193;-73
2021/11/30 14:42:34;;;;;;;17.90;1.80;;;;;;;;;;5000957;28;20228;-72
2021/11/30 14:45:17;;;;;;;11.43;2.07;;;;;;;;;;4990987;28;20211;-72
2021/11/30 14:47:43;;;;;;;10.90;1.67;;;;;;;;;;5000833;28;20186;-72
2021/11/30 14:50:11;;;;;;;9.60;1.67;;;;;;;;;;4996033;28;20198;-71
2021/11/30 14:52:43;;;;;;;8.83;1.57;;;;;;;;;;4999907;28;20192;-72
2021/11/30 14:55:31;;;;;;;13.57;2.10;;;;;;;;;;4994319;28;20694;-72